Time;durP1;ratioP1;P1;durP2;ratioP2;P2;SDS_P1;SDS_P2;PMS_P1;PMS_P2;Temp;Humidity;BMP_temperature;BMP_pressure;BME280_temperature;BME280_humidity;BME280_pressure;Samples;Min_cycle;Max_cycle;Signal;HPM_P1;HPM_P2
2023/04/22 00:01:31;;;;;;;0.77;0.75;;;13.40;94.30;;;;;;4411864;32;20086;-74
2023/04/22 00:03:56;;;;;;;15.30;1.00;;;13.30;93.90;;;;;;4410438;32;20715;-74
2023/04/22 00:06:22;;;;;;;0.88;0.85;;;13.30;93.90;;;;;;4409438;32;20092;-74
2023/04/22 00:08:47;;;;;;;0.60;0.60;;;13.30;94.00;;;;;;4412390;32;20113;-74
2023/04/22 00:11:13;;;;;;;0.55;0.55;;;13.30;94.60;;;;;;4410825;32;20069;-74
2023/04/22 00:13:38;;;;;;;1.23;1.02;;;13.20;94.30;;;;;;4409638;32;20335;-74
2023/04/22 00:16:04;;;;;;;0.80;0.80;;;13.20;94.30;;;;;;4410126;32;20078;-74
2023/04/22 00:18:29;;;;;;;0.60;0.60;;;13.20;94.50;;;;;;4410357;32;20093;-74
2023/04/22 00:20:55;;;;;;;2.55;1.10;;;13.10;94.40;;;;;;4411039;32;20066;-74
2023/04/22 00:23:20;;;;;;;1.00;0.93;;;13.10;94.20;;;;;;4409627;32;20435;-74
2023/04/22 00:25:46;;;;;;;4.18;1.33;;;13.10;94.80;;;;;;4410193;32;20089;-74
2023/04/22 00:28:11;;;;;;;0.77;0.60;;;13.10;95.50;;;;;;4409110;32;20133;-74
2023/04/22 00:30:37;;;;;;;0.93;0.82;;;13.00;94.60;;;;;;4410606;32;20086;-74
2023/04/22 00:33:03;;;;;;;1.45;1.00;;;13.00;94.90;;;;;;4409377;32;20564;-74
2023/04/22 00:35:28;;;;;;;1.00;1.00;;;13.00;95.00;;;;;;4410944;32;20313;-74
2023/04/22 00:37:54;;;;;;;0.60;0.60;;;13.00;94.70;;;;;;4408478;32;20074;-74
2023/04/22 00:40:20;;;;;;;1.12;0.85;;;13.00;94.70;;;;;;4408536;32;20096;-74
2023/04/22 00:42:49;;;;;;;0.73;0.70;;;13.00;94.90;;;;;;4411879;32;20501;-74
2023/04/22 00:45:18;;;;;;;2.35;0.70;;;12.90;96.60;;;;;;4409244;32;20127;-74
2023/04/22 00:47:44;;;;;;;0.73;0.73;;;12.80;96.40;;;;;;4409914;32;20545;-74
2023/04/22 00:50:10;;;;;;;5.53;0.95;;;12.70;97.40;;;;;;4407668;32;20078;-74
2023/04/22 00:52:36;;;;;;;9.63;2.25;;;12.60;96.50;;;;;;4408748;32;20839;-73
2023/04/22 00:55:02;;;;;;;0.70;0.70;;;12.60;96.90;;;;;;4408188;32;20082;-73
2023/04/22 00:57:29;;;;;;;2.83;1.33;;;12.60;97.60;;;;;;4406562;32;20141;-74
2023/04/22 00:59:55;;;;;;;0.80;0.80;;;12.50;97.30;;;;;;4409818;32;20069;-74
2023/04/22 01:02:20;;;;;;;0.98;0.90;;;12.50;97.10;;;;;;4408586;32;20319;-74
2023/04/22 01:04:46;;;;;;;0.70;0.70;;;12.50;98.10;;;;;;4410275;32;20070;-73
2023/04/22 01:07:12;;;;;;;0.50;0.50;;;12.40;99.90;;;;;;4407373;32;20121;-74
2023/04/22 01:09:38;;;;;;;1.00;0.60;;;12.40;98.90;;;;;;4409387;32;20081;-74
2023/04/22 01:12:04;;;;;;;0.40;0.40;;;12.40;99.50;;;;;;4409519;32;20082;-74
2023/04/22 01:14:30;;;;;;;0.70;0.70;;;12.30;99.10;;;;;;4409235;32;20143;-74
2023/04/22 01:16:56;;;;;;;0.75;0.75;;;12.30;98.70;;;;;;4408750;32;20065;-74
2023/04/22 01:19:22;;;;;;;2.03;0.93;;;12.30;98.70;;;;;;4407879;32;20120;-74
2023/04/22 01:21:50;;;;;;;3.85;0.57;;;12.30;98.00;;;;;;4409836;32;20058;-74
2023/04/22 01:24:15;;;;;;;1.02;0.93;;;12.30;98.10;;;;;;4408248;32;20129;-74
2023/04/22 01:26:41;;;;;;;0.70;0.70;;;12.40;98.40;;;;;;4408938;32;20509;-74
2023/04/22 01:29:07;;;;;;;3.37;1.60;;;12.40;98.00;;;;;;4402956;32;20093;-73
2023/04/22 01:31:32;;;;;;;0.50;0.50;;;12.30;98.70;;;;;;4397286;32;20695;-74
2023/04/22 01:33:58;;;;;;;0.60;0.60;;;12.30;98.70;;;;;;4396677;32;20704;-74
2023/04/22 01:36:24;;;;;;;1.00;0.85;;;12.30;98.40;;;;;;4398259;32;20577;-74
2023/04/22 01:38:50;;;;;;;1.33;1.05;;;12.30;98.20;;;;;;4401978;32;20149;-74
2023/04/22 01:41:16;;;;;;;1.15;0.85;;;12.20;99.40;;;;;;4401150;32;20066;-74
2023/04/22 01:43:42;;;;;;;0.65;0.65;;;12.10;98.90;;;;;;4399074;32;20081;-74
2023/04/22 01:46:08;;;;;;;1.02;0.90;;;12.20;99.80;;;;;;4398810;32;20113;-74
2023/04/22 01:48:35;;;;;;;0.70;0.70;;;12.10;99.80;;;;;;4396440;32;20141;-75
2023/04/22 01:51:01;;;;;;;0.70;0.70;;;12.00;99.90;;;;;;4398946;32;20057;-74
2023/04/22 01:53:27;;;;;;;2.20;1.05;;;12.00;99.90;;;;;;4399845;32;20066;-74
2023/04/22 01:55:52;;;;;;;1.33;0.70;;;11.90;99.90;;;;;;4396516;32;20074;-74
2023/04/22 01:58:18;;;;;;;1.48;1.10;;;11.90;99.90;;;;;;4396136;32;20093;-74
2023/04/22 02:00:43;;;;;;;0.65;0.65;;;11.80;99.90;;;;;;4395353;32;20077;-74
2023/04/22 02:03:09;;;;;;;1.27;0.93;;;11.70;99.90;;;;;;4398624;32;20082;-74
2023/04/22 02:05:36;;;;;;;0.90;0.90;;;11.70;99.90;;;;;;4402698;32;20419;-74
2023/04/22 02:08:02;;;;;;;0.70;0.70;;;11.70;99.90;;;;;;4394240;32;20065;-73
2023/04/22 02:10:28;;;;;;;1.77;0.70;;;11.70;99.90;;;;;;4395933;32;20102;-73
2023/04/22 02:12:53;;;;;;;0.75;0.60;;;11.70;99.90;;;;;;4399899;32;20081;-74
2023/04/22 02:15:19;;;;;;;2.37;0.93;;;11.70;99.90;;;;;;4398375;32;20105;-74
2023/04/22 02:17:45;;;;;;;0.73;0.68;;;11.70;99.90;;;;;;4398983;32;20121;-74
2023/04/22 02:20:11;;;;;;;1.12;0.95;;;11.70;99.90;;;;;;4397730;32;20497;-74
2023/04/22 02:22:37;;;;;;;1.25;0.80;;;11.70;99.90;;;;;;4402030;32;20427;-74
2023/04/22 02:25:04;;;;;;;1.08;0.98;;;11.60;99.90;;;;;;4400198;32;20135;-73
2023/04/22 02:27:29;;;;;;;8.90;2.12;;;11.60;99.90;;;;;;4400300;32;20081;-74
2023/04/22 02:29:55;;;;;;;0.85;0.85;;;11.60;99.90;;;;;;4402718;32;20078;-73
2023/04/22 02:32:20;;;;;;;1.45;1.05;;;11.60;99.90;;;;;;4399201;32;20070;-73
2023/04/22 02:34:47;;;;;;;0.62;0.62;;;11.60;99.90;;;;;;4404016;32;20064;-74
2023/04/22 02:37:12;;;;;;;10.45;3.55;;;11.60;99.90;;;;;;4397833;32;20085;-74
2023/04/22 02:39:39;;;;;;;0.93;0.80;;;11.60;99.90;;;;;;4397460;32;20565;-74
2023/04/22 02:42:04;;;;;;;1.87;1.33;;;11.50;99.90;;;;;;4399258;32;20066;-74
2023/04/22 02:44:30;;;;;;;6.00;0.98;;;11.50;99.90;;;;;;4397749;32;20105;-74
2023/04/22 02:46:55;;;;;;;1.08;0.98;;;11.40;99.90;;;;;;4403073;32;20439;-74
2023/04/22 02:49:21;;;;;;;1.02;0.77;;;11.40;99.90;;;;;;4400682;32;20061;-73
2023/04/22 02:51:46;;;;;;;0.40;0.40;;;11.40;99.90;;;;;;4400542;32;20070;-73
2023/04/22 02:54:12;;;;;;;0.70;0.70;;;11.40;99.90;;;;;;4402797;32;20118;-73
2023/04/22 02:56:37;;;;;;;0.55;0.55;;;11.40;99.90;;;;;;4403882;32;20431;-74
2023/04/22 02:59:03;;;;;;;0.55;0.55;;;11.40;99.90;;;;;;4402479;32;20074;-73
2023/04/22 03:01:28;;;;;;;2.90;1.42;;;11.40;99.90;;;;;;4403476;32;20530;-73
2023/04/22 03:03:54;;;;;;;0.70;0.70;;;11.30;99.90;;;;;;4401589;32;20541;-73
2023/04/22 03:06:21;;;;;;;0.98;0.82;;;11.20;99.90;;;;;;4403665;32;20160;-74
2023/04/22 03:08:46;;;;;;;0.57;0.57;;;11.20;99.90;;;;;;4402063;32;20085;-73
2023/04/22 03:11:12;;;;;;;1.48;0.68;;;11.20;99.90;;;;;;4402106;32;20078;-73
2023/04/22 03:13:38;;;;;;;0.55;0.55;;;11.30;99.90;;;;;;4402044;32;20506;-73
2023/04/22 03:16:03;;;;;;;1.12;0.73;;;11.20;99.90;;;;;;4403955;32;20062;-74
2023/04/22 03:18:29;;;;;;;1.40;0.70;;;11.10;99.90;;;;;;4400535;32;20078;-73
2023/04/22 03:20:54;;;;;;;0.65;0.65;;;11.10;99.90;;;;;;4401549;32;20085;-74
2023/04/22 03:23:20;;;;;;;2.50;1.87;;;11.00;99.90;;;;;;4402861;32;20071;-73
2023/04/22 03:25:45;;;;;;;0.68;0.68;;;11.00;99.90;;;;;;4400224;32;20547;-74
2023/04/22 03:28:11;;;;;;;2.28;0.90;;;11.10;99.90;;;;;;4401940;32;20074;-74
2023/04/22 03:30:36;;;;;;;0.65;0.62;;;11.00;99.90;;;;;;4409658;32;20587;-73
2023/04/22 03:33:02;;;;;;;2.42;1.55;;;11.00;99.90;;;;;;4412229;32;20054;-74
2023/04/22 03:35:27;;;;;;;1.70;1.08;;;10.90;99.90;;;;;;4409439;32;20083;-74
2023/04/22 03:37:53;;;;;;;1.08;0.85;;;10.90;99.90;;;;;;4411519;32;20137;-73
2023/04/22 03:40:18;;;;;;;1.02;0.85;;;10.80;99.90;;;;;;4409937;32;20073;-73
2023/04/22 03:42:44;;;;;;;0.57;0.57;;;10.80;99.90;;;;;;4408891;32;20487;-74
2023/04/22 03:45:10;;;;;;;3.55;1.27;;;10.70;99.90;;;;;;4410637;32;20580;-74
2023/04/22 03:47:35;;;;;;;3.40;1.15;;;10.70;99.90;;;;;;4411130;32;20079;-74
2023/04/22 03:50:01;;;;;;;0.57;0.57;;;10.70;99.90;;;;;;4411204;32;20152;-74
2023/04/22 03:52:26;;;;;;;0.65;0.65;;;10.70;99.90;;;;;;4410084;32;20073;-74
2023/04/22 03:54:52;;;;;;;5.93;0.95;;;10.60;99.90;;;;;;4411202;32;20097;-74
2023/04/22 03:57:17;;;;;;;2.05;1.15;;;10.60;99.90;;;;;;4410251;32;20206;-74
2023/04/22 03:59:42;;;;;;;0.70;0.70;;;10.50;99.90;;;;;;4409878;32;20105;-74
2023/04/22 04:02:08;;;;;;;1.17;0.82;;;10.50;99.90;;;;;;4411299;32;20133;-74
2023/04/22 04:04:33;;;;;;;7.85;1.27;;;10.40;99.90;;;;;;4410533;32;20582;-74
2023/04/22 04:06:59;;;;;;;0.77;0.68;;;10.30;99.90;;;;;;4410487;32;20403;-74
2023/04/22 04:09:26;;;;;;;0.70;0.70;;;10.40;99.90;;;;;;4410321;32;20151;-74
2023/04/22 04:11:51;;;;;;;1.48;0.65;;;10.40;99.90;;;;;;4409489;32;20066;-74
2023/04/22 04:14:16;;;;;;;0.93;0.62;;;10.40;99.90;;;;;;4410365;32;20078;-74
2023/04/22 04:16:43;;;;;;;1.27;1.02;;;10.40;99.90;;;;;;4410636;32;20069;-74
2023/04/22 04:19:08;;;;;;;0.60;0.60;;;10.40;99.90;;;;;;4410332;32;20112;-74
2023/04/22 04:21:34;;;;;;;0.88;0.82;;;10.50;99.90;;;;;;4409736;32;20602;-74
2023/04/22 04:23:59;;;;;;;2.10;0.85;;;10.50;99.90;;;;;;4411421;32;20078;-74
2023/04/22 04:26:26;;;;;;;3.00;1.00;;;10.40;99.90;;;;;;4409049;32;20082;-74
2023/04/22 04:28:52;;;;;;;1.00;1.00;;;10.30;99.90;;;;;;4411102;32;20070;-74
2023/04/22 04:31:18;;;;;;;2.40;0.70;;;10.40;99.90;;;;;;4410361;32;20120;-74
2023/04/22 04:33:43;;;;;;;0.60;0.60;;;10.30;99.90;;;;;;4410408;32;20082;-74
2023/04/22 04:36:10;;;;;;;0.60;0.60;;;10.40;99.90;;;;;;4410262;32;20124;-74
2023/04/22 04:38:35;;;;;;;1.12;0.70;;;10.40;99.90;;;;;;4410173;32;20093;-74
2023/04/22 04:41:01;;;;;;;0.68;0.60;;;10.30;99.90;;;;;;4410255;32;20132;-74
2023/04/22 04:43:28;;;;;;;0.52;0.52;;;10.30;99.90;;;;;;4410165;32;20082;-73
2023/04/22 04:45:53;;;;;;;3.40;0.60;;;10.40;99.90;;;;;;4410609;32;20077;-74
2023/04/22 04:48:19;;;;;;;0.75;0.57;;;10.40;99.90;;;;;;4409005;32;20069;-74
2023/04/22 04:50:45;;;;;;;1.77;1.27;;;10.40;99.90;;;;;;4408487;32;20086;-74
2023/04/22 04:53:11;;;;;;;0.73;0.73;;;10.40;99.90;;;;;;4408760;32;20129;-73
2023/04/22 04:55:37;;;;;;;19.73;2.85;;;10.50;99.90;;;;;;4406671;32;20082;-74
2023/04/22 04:58:03;;;;;;;0.65;0.65;;;10.50;99.90;;;;;;4408553;32;20144;-74
2023/04/22 05:00:29;;;;;;;1.35;1.25;;;10.60;99.90;;;;;;4405910;32;20102;-74
2023/04/22 05:02:54;;;;;;;0.65;0.65;;;10.60;99.90;;;;;;4409856;32;20077;-74
2023/04/22 05:05:20;;;;;;;2.28;1.00;;;10.60;99.90;;;;;;4409598;32;20089;-74
2023/04/22 05:07:45;;;;;;;3.92;1.08;;;10.70;99.90;;;;;;4410429;32;20065;-74
2023/04/22 05:10:11;;;;;;;2.17;1.10;;;10.70;99.90;;;;;;4407567;32;20061;-74
2023/04/22 05:12:36;;;;;;;0.70;0.70;;;10.70;99.90;;;;;;4410553;32;20416;-74
2023/04/22 05:15:02;;;;;;;0.57;0.57;;;10.70;99.90;;;;;;4410031;32;20058;-74
2023/04/22 05:17:28;;;;;;;1.05;0.93;;;10.70;99.90;;;;;;4409171;32;20647;-74
2023/04/22 05:19:53;;;;;;;4.12;1.20;;;10.80;99.90;;;;;;4410036;32;20078;-74
2023/04/22 05:22:19;;;;;;;3.42;1.20;;;10.80;99.90;;;;;;4408699;32;20090;-74
2023/04/22 05:24:44;;;;;;;13.82;1.27;;;10.90;99.90;;;;;;4410700;32;20417;-74
2023/04/22 05:27:10;;;;;;;0.95;0.90;;;11.00;99.90;;;;;;4409244;32;21264;-74
2023/04/22 05:29:35;;;;;;;1.00;0.88;;;11.10;99.90;;;;;;4404333;32;20153;-74
2023/04/22 05:32:01;;;;;;;0.88;0.88;;;11.20;99.90;;;;;;4400870;32;20073;-74
2023/04/22 05:34:26;;;;;;;0.90;0.80;;;11.30;99.90;;;;;;4397280;32;20072;-74
2023/04/22 05:36:52;;;;;;;1.55;1.15;;;11.40;99.90;;;;;;4399713;32;20569;-74
2023/04/22 05:39:18;;;;;;;0.60;0.60;;;11.50;99.90;;;;;;4400136;32;20086;-74
2023/04/22 05:41:44;;;;;;;1.40;0.73;;;11.60;99.90;;;;;;4399987;32;20428;-74
2023/04/22 05:44:09;;;;;;;1.45;0.98;;;11.70;99.90;;;;;;4398802;32;20081;-74
2023/04/22 05:46:35;;;;;;;1.35;1.00;;;11.80;99.90;;;;;;4399032;32;20136;-74
2023/04/22 05:49:00;;;;;;;0.70;0.70;;;11.80;99.90;;;;;;4399103;32;20518;-74
2023/04/22 05:51:26;;;;;;;0.57;0.57;;;11.80;99.90;;;;;;4402736;32;20070;-75
2023/04/22 05:53:51;;;;;;;3.60;1.37;;;11.90;99.90;;;;;;4401216;32;20103;-74
2023/04/22 05:56:17;;;;;;;0.75;0.70;;;12.00;99.90;;;;;;4401196;32;20144;-74
2023/04/22 05:58:42;;;;;;;5.00;0.93;;;12.10;99.90;;;;;;4400271;32;20474;-74
2023/04/22 06:01:08;;;;;;;0.68;0.68;;;12.20;99.90;;;;;;4401811;32;20082;-74
2023/04/22 06:03:34;;;;;;;0.88;0.60;;;12.30;99.90;;;;;;4401736;32;20125;-74
2023/04/22 06:05:59;;;;;;;0.88;0.70;;;12.40;99.90;;;;;;4400110;32;20126;-74
2023/04/22 06:08:26;;;;;;;2.08;1.05;;;12.50;99.90;;;;;;4400344;32;20067;-74
2023/04/22 06:10:51;;;;;;;0.98;0.98;;;12.50;99.90;;;;;;4400882;32;20151;-74
2023/04/22 06:13:17;;;;;;;1.00;0.90;;;12.50;99.90;;;;;;4395598;32;20077;-74
2023/04/22 06:15:42;;;;;;;1.10;0.88;;;12.50;99.90;;;;;;4397138;32;20078;-74
2023/04/22 06:18:08;;;;;;;0.65;0.65;;;12.50;99.90;;;;;;4398101;32;20126;-74
2023/04/22 06:20:34;;;;;;;0.98;0.82;;;12.50;99.90;;;;;;4400353;32;20086;-75
2023/04/22 06:23:00;;;;;;;0.98;0.73;;;12.50;99.90;;;;;;4401319;32;20073;-74
2023/04/22 06:25:26;;;;;;;0.80;0.80;;;12.50;99.90;;;;;;4400619;32;20127;-74
2023/04/22 06:27:51;;;;;;;5.62;1.02;;;12.50;99.90;;;;;;4400835;32;20066;-74
2023/04/22 06:30:17;;;;;;;1.17;1.08;;;12.60;99.90;;;;;;4406858;32;20078;-74
2023/04/22 06:32:42;;;;;;;1.08;1.02;;;12.70;99.90;;;;;;4409231;32;20078;-74
2023/04/22 06:35:09;;;;;;;2.80;1.12;;;12.80;99.90;;;;;;4408384;32;20089;-73
2023/04/22 06:37:35;;;;;;;1.30;0.95;;;13.00;99.90;;;;;;4407778;32;20470;-75
2023/04/22 06:40:01;;;;;;;2.25;1.20;;;13.10;99.90;;;;;;4407553;32;20549;-74
2023/04/22 06:42:26;;;;;;;0.50;0.50;;;13.20;99.90;;;;;;4407733;32;20090;-74
2023/04/22 06:44:52;;;;;;;0.88;0.88;;;13.30;99.90;;;;;;4407832;32;20102;-74
2023/04/22 06:47:17;;;;;;;0.98;0.82;;;13.30;99.90;;;;;;4407881;32;20082;-74
2023/04/22 06:49:44;;;;;;;9.77;2.83;;;13.40;99.90;;;;;;4408739;32;20521;-74
2023/04/22 06:52:09;;;;;;;1.12;0.95;;;13.50;99.90;;;;;;4409358;32;20085;-75
2023/04/22 06:54:35;;;;;;;3.45;1.37;;;13.60;99.90;;;;;;4407475;32;20471;-74
2023/04/22 06:57:01;;;;;;;0.68;0.65;;;13.70;99.90;;;;;;4408203;32;20066;-74
2023/04/22 06:59:26;;;;;;;0.62;0.62;;;13.70;99.90;;;;;;4407955;32;20066;-74
2023/04/22 07:01:51;;;;;;;1.85;1.27;;;13.80;99.90;;;;;;4408955;32;20061;-74
2023/04/22 07:04:17;;;;;;;0.60;0.60;;;13.90;99.90;;;;;;4409517;32;20069;-74
2023/04/22 07:06:42;;;;;;;0.70;0.70;;;13.90;99.90;;;;;;4408847;32;20395;-74
2023/04/22 07:09:09;;;;;;;2.60;0.88;;;13.80;99.90;;;;;;4409679;32;20082;-74
2023/04/22 07:11:34;;;;;;;0.80;0.80;;;13.90;99.90;;;;;;4408236;32;20419;-75
2023/04/22 07:14:00;;;;;;;7.80;2.28;;;14.00;99.90;;;;;;4407659;32;20069;-74
2023/04/22 07:16:27;;;;;;;1.40;0.70;;;14.10;99.90;;;;;;4409410;32;20097;-74
2023/04/22 07:18:52;;;;;;;0.90;0.62;;;14.20;99.90;;;;;;4411289;32;20078;-74
2023/04/22 07:21:18;;;;;;;2.17;1.02;;;14.20;99.90;;;;;;4410586;32;20082;-75
2023/04/22 07:23:43;;;;;;;3.03;0.70;;;14.30;99.90;;;;;;4410792;32;20089;-74
2023/04/22 07:26:09;;;;;;;0.50;0.50;;;14.40;99.90;;;;;;4410618;32;20351;-74
2023/04/22 07:28:34;;;;;;;6.05;0.77;;;14.60;99.90;;;;;;4407712;32;20078;-74
2023/04/22 07:31:01;;;;;;;4.47;0.77;;;14.70;99.90;;;;;;4404642;32;20180;-74
2023/04/22 07:33:27;;;;;;;0.52;0.52;;;14.80;99.90;;;;;;4403670;32;20133;-74
2023/04/22 07:35:53;;;;;;;0.68;0.68;;;14.90;99.90;;;;;;4399231;32;20086;-74
2023/04/22 07:38:18;;;;;;;1.75;1.33;;;15.00;99.90;;;;;;4393907;32;20082;-74
2023/04/22 07:40:43;;;;;;;1.17;0.82;;;15.20;99.90;;;;;;4392886;32;20136;-73
2023/04/22 07:43:09;;;;;;;0.80;0.80;;;15.30;99.90;;;;;;4397154;32;20074;-74
2023/04/22 07:45:34;;;;;;;0.55;0.55;;;15.30;99.90;;;;;;4393888;32;20062;-74
2023/04/22 07:48:00;;;;;;;1.65;0.80;;;15.50;99.90;;;;;;4401545;32;20101;-74
2023/04/22 07:50:25;;;;;;;1.40;0.70;;;15.60;99.90;;;;;;4399120;32;20097;-74
2023/04/22 07:52:51;;;;;;;7.15;1.55;;;15.70;99.90;;;;;;4402547;32;20109;-74
2023/04/22 07:55:16;;;;;;;1.10;0.88;;;15.90;99.90;;;;;;4400888;32;20098;-74
2023/04/22 07:57:42;;;;;;;2.92;0.90;;;15.90;99.20;;;;;;4401146;32;20153;-74
2023/04/22 08:00:09;;;;;;;0.88;0.80;;;15.90;98.40;;;;;;4403851;32;20089;-74
2023/04/22 08:02:34;;;;;;;3.67;1.67;;;16.00;98.80;;;;;;4401584;32;20136;-74
2023/04/22 08:05:00;;;;;;;0.80;0.80;;;16.10;98.30;;;;;;4398200;32;20098;-73
2023/04/22 08:07:25;;;;;;;0.70;0.70;;;16.20;98.70;;;;;;4398826;32;20086;-73
2023/04/22 08:09:51;;;;;;;1.23;0.95;;;16.20;97.80;;;;;;4400363;32;20532;-74
2023/04/22 08:12:17;;;;;;;1.20;1.10;;;16.20;98.20;;;;;;4398986;32;20061;-73
2023/04/22 08:14:43;;;;;;;0.60;0.60;;;16.20;98.40;;;;;;4403962;32;20098;-73
2023/04/22 08:17:08;;;;;;;1.98;1.25;;;16.40;99.40;;;;;;4402707;32;20181;-73
2023/04/22 08:19:34;;;;;;;3.95;0.80;;;16.60;98.00;;;;;;4402038;32;20070;-74
2023/04/22 08:22:00;;;;;;;0.70;0.70;;;16.70;97.60;;;;;;4400639;32;20078;-74
2023/04/22 08:24:25;;;;;;;0.70;0.62;;;16.70;98.00;;;;;;4401825;32;20107;-74
2023/04/22 08:26:51;;;;;;;0.77;0.77;;;16.80;97.70;;;;;;4403005;32;20129;-73
2023/04/22 08:29:16;;;;;;;3.65;2.15;;;16.90;97.20;;;;;;4403473;32;20105;-74
2023/04/22 08:31:42;;;;;;;0.47;0.47;;;17.00;97.50;;;;;;4402889;32;20081;-74
2023/04/22 08:34:07;;;;;;;1.08;0.93;;;16.80;96.70;;;;;;4398972;32;20687;-74
2023/04/22 08:36:33;;;;;;;1.58;1.00;;;16.90;97.60;;;;;;4400056;32;20113;-74
2023/04/22 08:38:58;;;;;;;1.20;1.02;;;17.10;97.60;;;;;;4395090;32;20073;-74
2023/04/22 08:41:25;;;;;;;1.10;1.00;;;17.20;96.80;;;;;;4397679;32;20082;-74
2023/04/22 08:43:52;;;;;;;1.55;0.82;;;17.40;96.60;;;;;;4399712;32;20069;-74
2023/04/22 08:46:18;;;;;;;0.80;0.80;;;17.50;97.10;;;;;;4402588;32;20503;-74
2023/04/22 08:48:47;;;;;;;1.02;0.93;;;17.60;96.40;;;;;;4398467;32;20573;-74
2023/04/22 08:51:15;;;;;;;7.30;1.02;;;17.80;95.90;;;;;;4399978;32;20376;-74
2023/04/22 08:53:42;;;;;;;0.68;0.68;;;17.80;96.20;;;;;;4398049;32;20071;-73
2023/04/22 08:56:08;;;;;;;0.62;0.62;;;17.90;96.00;;;;;;4404659;32;20135;-74
2023/04/22 08:58:34;;;;;;;0.70;0.70;;;18.00;95.70;;;;;;4400225;32;20075;-74
2023/04/22 09:01:01;;;;;;;1.85;0.88;;;18.20;95.90;;;;;;4401874;32;20115;-73
2023/04/22 09:03:26;;;;;;;1.33;0.73;;;18.30;96.60;;;;;;4402483;32;20082;-74
2023/04/22 09:05:54;;;;;;;0.50;0.50;;;18.50;95.30;;;;;;4398058;32;20097;-73
2023/04/22 09:08:19;;;;;;;3.83;0.80;;;18.70;95.00;;;;;;4403106;32;20530;-73
2023/04/22 09:10:45;;;;;;;1.98;1.00;;;18.70;95.00;;;;;;4395330;32;20089;-73
2023/04/22 09:13:13;;;;;;;5.68;0.88;;;18.90;94.00;;;;;;4402156;32;20085;-75
2023/04/22 09:15:38;;;;;;;2.22;1.00;;;18.90;94.30;;;;;;4401967;32;20090;-74
2023/04/22 09:18:04;;;;;;;0.95;0.82;;;19.10;94.30;;;;;;4404324;32;20085;-73
2023/04/22 09:20:30;;;;;;;1.58;1.15;;;19.30;94.10;;;;;;4399068;32;20509;-74
2023/04/22 09:23:00;;;;;;;0.62;0.57;;;19.80;95.60;;;;;;4400974;32;20089;-75
2023/04/22 09:25:26;;;;;;;6.57;1.48;;;19.90;92.60;;;;;;4400595;32;20078;-74
2023/04/22 09:27:54;;;;;;;1.60;1.27;;;19.70;93.20;;;;;;4404825;32;20420;-74
2023/04/22 09:30:29;;;;;;;1.00;0.60;;;19.80;94.00;;;;;;4407966;32;20073;-74
2023/04/22 09:32:56;;;;;;;1.02;0.93;;;20.00;92.90;;;;;;4409403;32;20414;-74
2023/04/22 09:35:26;;;;;;;1.10;0.70;;;20.00;92.90;;;;;;4410463;32;20116;-74
2023/04/22 09:37:51;;;;;;;1.87;1.33;;;20.30;92.40;;;;;;4409479;32;20189;-74
2023/04/22 09:40:18;;;;;;;1.37;0.98;;;20.50;91.30;;;;;;4409477;32;20089;-73
2023/04/22 09:42:50;;;;;;;0.47;0.47;;;20.10;91.40;;;;;;4409255;32;20107;-74
2023/04/22 09:45:33;;;;;;;0.85;0.85;;;20.40;92.90;;;;;;4409136;32;20149;-74
2023/04/22 09:48:05;;;;;;;0.40;0.40;;;20.70;91.10;;;;;;4409751;32;20077;-75
2023/04/22 09:50:31;;;;;;;3.03;1.25;;;20.70;90.40;;;;;;4408620;32;20069;-75
2023/04/22 09:52:58;;;;;;;0.40;0.40;;;20.90;89.70;;;;;;4408971;32;20418;-75
2023/04/22 09:55:26;;;;;;;0.60;0.60;;;21.00;89.60;;;;;;4408934;32;20728;-75
2023/04/22 09:57:53;;;;;;;1.05;0.95;;;21.00;89.00;;;;;;4409594;32;20058;-74
2023/04/22 10:00:20;;;;;;;0.77;0.77;;;21.10;90.00;;;;;;4407944;32;20125;-75
2023/04/22 10:02:45;;;;;;;0.93;0.75;;;21.40;90.40;;;;;;4410072;32;20065;-75
2023/04/22 10:05:11;;;;;;;1.02;0.73;;;21.60;86.80;;;;;;4409057;32;20110;-75
2023/04/22 10:07:38;;;;;;;1.00;0.80;;;21.60;86.20;;;;;;4409741;32;20143;-75
2023/04/22 10:10:07;;;;;;;0.73;0.73;;;21.80;86.80;;;;;;4408013;32;20085;-74
2023/04/22 10:12:33;;;;;;;1.17;0.95;;;22.00;88.30;;;;;;4410429;32;20127;-76
2023/04/22 10:14:59;;;;;;;0.60;0.60;;;22.40;87.70;;;;;;4409614;32;20086;-75
2023/04/22 10:17:26;;;;;;;0.85;0.73;;;22.40;82.70;;;;;;4409073;32;20065;-74
2023/04/22 10:19:52;;;;;;;0.73;0.70;;;22.10;82.70;;;;;;4409103;32;20068;-74
2023/04/22 10:22:17;;;;;;;1.83;1.35;;;22.10;82.30;;;;;;4408250;32;20552;-73
2023/04/22 10:24:46;;;;;;;0.65;0.65;;;22.30;84.60;;;;;;4410732;32;20186;-74
2023/04/22 10:27:12;;;;;;;0.85;0.80;;;22.70;84.20;;;;;;4409356;32;20105;-75
2023/04/22 10:29:39;;;;;;;0.77;0.70;;;23.00;82.10;;;;;;4410147;32;20446;-76
2023/04/22 10:32:23;;;;;;;1.00;0.95;;;23.00;81.90;;;;;;4410897;32;20115;-75
2023/04/22 10:35:05;;;;;;;9.85;1.48;;;23.10;82.30;;;;;;4407306;32;20105;-74
2023/04/22 10:37:30;;;;;;;2.30;1.12;;;23.30;76.70;;;;;;4409243;32;20070;-74
2023/04/22 10:40:16;;;;;;;0.90;0.57;;;23.30;77.30;;;;;;4407099;32;20061;-74
2023/04/22 10:42:48;;;;;;;1.05;0.68;;;23.50;77.10;;;;;;4398419;32;20097;-75
2023/04/22 10:45:14;;;;;;;0.60;0.60;;;23.50;75.80;;;;;;4409033;32;20093;-75
2023/04/22 10:47:41;;;;;;;2.85;1.87;;;23.60;76.60;;;;;;4410343;32;20077;-75
2023/04/22 10:50:20;;;;;;;4.95;0.75;;;23.80;75.20;;;;;;4408147;32;20081;-74
2023/04/22 10:52:48;;;;;;;6.40;1.73;;;23.60;76.30;;;;;;4411748;32;20486;-75
2023/04/22 10:55:15;;;;;;;1.45;0.70;;;24.10;76.30;;;;;;4410512;32;20098;-74
2023/04/22 10:57:42;;;;;;;0.50;0.50;;;24.00;78.90;;;;;;4411330;32;20066;-75
2023/04/22 11:00:30;;;;;;;0.40;0.40;;;24.30;74.70;;;;;;4411275;32;20058;-74
2023/04/22 11:03:13;;;;;;;5.75;0.45;;;24.40;74.10;;;;;;4399599;32;20151;-74
2023/04/22 11:05:39;;;;;;;0.55;0.55;;;24.70;73.10;;;;;;4411745;32;20074;-74
2023/04/22 11:08:10;;;;;;;0.40;0.40;;;24.80;72.70;;;;;;4411383;32;20465;-74
2023/04/22 11:10:41;;;;;;;0.70;0.55;;;24.60;70.30;;;;;;4410242;32;20082;-74
2023/04/22 11:13:09;;;;;;;0.57;0.57;;;24.50;70.50;;;;;;4411004;32;20086;-76
2023/04/22 11:15:36;;;;;;;0.40;0.40;;;24.70;69.60;;;;;;4410571;32;20073;-75
2023/04/22 11:18:02;;;;;;;0.95;0.68;;;24.80;68.50;;;;;;4411798;32;20070;-75
2023/04/22 11:20:29;;;;;;;0.35;0.35;;;24.70;67.50;;;;;;4408005;32;20078;-74
2023/04/22 11:22:56;;;;;;;0.85;0.47;;;24.50;68.40;;;;;;4411632;32;20479;-74
2023/04/22 11:25:24;;;;;;;0.50;0.40;;;24.90;68.80;;;;;;4411571;32;20078;-74
2023/04/22 11:27:49;;;;;;;1.27;0.93;;;25.30;66.00;;;;;;4400405;32;20058;-75
2023/04/22 11:30:18;;;;;;;1.45;0.85;;;25.30;64.80;;;;;;4408202;32;20129;-74
2023/04/22 11:32:46;;;;;;;2.85;1.05;;;25.20;64.50;;;;;;4397228;32;20078;-74
2023/04/22 11:35:14;;;;;;;0.45;0.43;;;25.50;64.70;;;;;;4399155;32;20296;-74
2023/04/22 11:37:43;;;;;;;1.73;0.85;;;25.60;62.80;;;;;;4406446;32;20199;-74
2023/04/22 11:40:11;;;;;;;0.32;0.28;;;25.60;63.10;;;;;;4405112;32;20168;-74
2023/04/22 11:42:37;;;;;;;0.40;0.40;;;25.50;62.50;;;;;;4405192;32;20124;-73
2023/04/22 11:45:04;;;;;;;0.55;0.47;;;25.90;62.70;;;;;;4408811;32;86674;-75
2023/04/22 11:47:30;;;;;;;5.15;1.45;;;26.50;63.10;;;;;;4408032;32;20464;-76
2023/04/22 11:50:00;;;;;;;0.55;0.55;;;26.80;60.20;;;;;;4408511;32;20065;-75
2023/04/22 11:52:46;;;;;;;;;;;26.60;60.70;;;;;;4408028;32;20086;-74
2023/04/22 11:55:13;;;;;;;0.20;0.20;;;26.50;60.70;;;;;;4399166;32;19981;-73
2023/04/22 11:57:39;;;;;;;0.47;0.28;;;26.30;59.50;;;;;;4408067;32;20077;-74
2023/04/22 12:00:06;;;;;;;1.17;0.60;;;26.10;58.60;;;;;;4409499;32;20078;-75
2023/04/22 12:02:31;;;;;;;0.20;0.20;;;26.40;59.00;;;;;;4405767;32;20241;-74
2023/04/22 12:04:58;;;;;;;3.70;0.40;;;26.80;58.70;;;;;;4409112;32;20116;-74
2023/04/22 12:07:26;;;;;;;10.95;2.17;;;27.00;59.00;;;;;;4409335;32;20078;-75
2023/04/22 12:09:53;;;;;;;0.45;0.45;;;27.40;58.90;;;;;;4394006;32;20852;-75
2023/04/22 12:12:24;;;;;;;1.75;0.80;;;27.40;57.70;;;;;;4407060;32;20069;-75
2023/04/22 12:14:50;;;;;;;0.25;0.25;;;27.70;58.20;;;;;;4406026;32;20750;-75
2023/04/22 12:17:18;;;;;;;1.12;0.77;;;27.20;57.00;;;;;;4409405;32;20074;-75
2023/04/22 12:19:46;;;;;;;0.82;0.65;;;27.10;56.20;;;;;;4408729;32;20411;-73
2023/04/22 12:22:12;;;;;;;0.98;0.60;;;27.60;56.70;;;;;;4410088;32;20065;-74
2023/04/22 12:24:44;;;;;;;2.45;0.98;;;27.80;55.70;;;;;;4410072;32;20165;-74
2023/04/22 12:27:10;;;;;;;1.65;0.60;;;27.70;55.30;;;;;;4410244;32;20086;-75
2023/04/22 12:29:35;;;;;;;2.65;1.10;;;27.40;55.40;;;;;;4400660;32;20066;-74
2023/04/22 12:32:01;;;;;;;2.42;1.10;;;27.50;55.10;;;;;;4396671;32;20073;-74
2023/04/22 12:34:26;;;;;;;0.28;0.28;;;27.60;53.90;;;;;;4393953;32;20073;-74
2023/04/22 12:36:53;;;;;;;0.47;0.47;;;28.40;53.30;;;;;;4400037;32;20442;-74
2023/04/22 12:39:19;;;;;;;0.40;0.40;;;28.30;54.00;;;;;;4398736;32;20074;-73
2023/04/22 12:41:46;;;;;;;0.50;0.50;;;27.80;55.60;;;;;;4401540;32;20069;-73
2023/04/22 12:44:11;;;;;;;0.30;0.30;;;27.60;55.30;;;;;;4398679;32;20213;-75